sensor_id;sensor_type;location;lat;lon;timestamp;pressure;altitude;pressure_sealevel;temperature;humidity
23241;BME280;11789;53.482;9.862;2024-02-26T00:01:31;100462.81;;;2.30;100.00
23241;BME280;11789;53.482;9.862;2024-02-26T00:03:58;100471.13;;;2.23;100.00
23241;BME280;11789;53.482;9.862;2024-02-26T00:06:25;100472.50;;;2.12;100.00
23241;BME280;11789;53.482;9.862;2024-02-26T00:08:50;100466.53;;;2.10;100.00
23241;BME280;11789;53.482;9.862;2024-02-26T00:11:15;100470.22;;;2.21;100.00
23241;BME280;11789;53.482;9.862;2024-02-26T00:13:41;100471.31;;;2.31;100.00
23241;BME280;11789;53.482;9.862;2024-02-26T00:16:06;100469.75;;;2.36;100.00
23241;BME280;11789;53.482;9.862;2024-02-26T00:18:33;100467.91;;;2.30;100.00
23241;BME280;11789;53.482;9.862;2024-02-26T00:20:58;100466.97;;;2.27;100.00
23241;BME280;11789;53.482;9.862;2024-02-26T00:23:24;100472.94;;;2.27;100.00
23241;BME280;11789;53.482;9.862;2024-02-26T00:25:49;100465.84;;;2.17;100.00
23241;BME280;11789;53.482;9.862;2024-02-26T00:28:15;100473.06;;;2.00;100.00
23241;BME280;11789;53.482;9.862;2024-02-26T00:30:40;100466.94;;;1.94;100.00
23241;BME280;11789;53.482;9.862;2024-02-26T00:33:06;100467.78;;;1.94;100.00
23241;BME280;11789;53.482;9.862;2024-02-26T00:35:31;100468.50;;;1.89;100.00
23241;BME280;11789;53.482;9.862;2024-02-26T00:37:57;100469.06;;;1.78;100.00
23241;BME280;11789;53.482;9.862;2024-02-26T00:40:24;100466.25;;;1.69;100.00
23241;BME280;11789;53.482;9.862;2024-02-26T00:42:49;100464.03;;;1.81;100.00
23241;BME280;11789;53.482;9.862;2024-02-26T00:45:15;100462.59;;;1.91;100.00
23241;BME280;11789;53.482;9.862;2024-02-26T00:47:42;100462.00;;;2.00;100.00
23241;BME280;11789;53.482;9.862;2024-02-26T00:50:08;100469.38;;;1.91;100.00
23241;BME280;11789;53.482;9.862;2024-02-26T00:52:34;100467.84;;;1.67;100.00
23241;BME280;11789;53.482;9.862;2024-02-26T00:55:01;100468.38;;;1.55;100.00
23241;BME280;11789;53.482;9.862;2024-02-26T00:57:26;100473.47;;;1.55;100.00
23241;BME280;11789;53.482;9.862;2024-02-26T00:59:51;100473.78;;;1.66;100.00
23241;BME280;11789;53.482;9.862;2024-02-26T01:02:17;100474.50;;;1.62;100.00
23241;BME280;11789;53.482;9.862;2024-02-26T01:04:42;100473.75;;;1.65;100.00
23241;BME280;11789;53.482;9.862;2024-02-26T01:07:08;100471.47;;;1.74;100.00
23241;BME280;11789;53.482;9.862;2024-02-26T01:09:34;100473.75;;;1.65;100.00
23241;BME280;11789;53.482;9.862;2024-02-26T01:11:59;100471.59;;;1.48;100.00
23241;BME280;11789;53.482;9.862;2024-02-26T01:14:25;100473.66;;;1.33;100.00
23241;BME280;11789;53.482;9.862;2024-02-26T01:16:50;100471.88;;;1.30;100.00
23241;BME280;11789;53.482;9.862;2024-02-26T01:19:16;100467.09;;;1.41;100.00
23241;BME280;11789;53.482;9.862;2024-02-26T01:21:41;100474.72;;;1.40;100.00
23241;BME280;11789;53.482;9.862;2024-02-26T01:24:07;100478.59;;;1.27;100.00
23241;BME280;11789;53.482;9.862;2024-02-26T01:26:32;100478.50;;;1.25;100.00
23241;BME280;11789;53.482;9.862;2024-02-26T01:28:58;100477.13;;;1.35;100.00
23241;BME280;11789;53.482;9.862;2024-02-26T01:31:23;100477.09;;;1.34;100.00
23241;BME280;11789;53.482;9.862;2024-02-26T01:33:49;100476.78;;;1.24;100.00
23241;BME280;11789;53.482;9.862;2024-02-26T01:36:14;100475.44;;;1.36;100.00
23241;BME280;11789;53.482;9.862;2024-02-26T01:38:40;100468.78;;;1.41;100.00
23241;BME280;11789;53.482;9.862;2024-02-26T01:41:05;100469.59;;;1.38;100.00
23241;BME280;11789;53.482;9.862;2024-02-26T01:43:31;100472.56;;;1.25;100.00
23241;BME280;11789;53.482;9.862;2024-02-26T01:45:57;100480.06;;;1.20;100.00
23241;BME280;11789;53.482;9.862;2024-02-26T01:48:23;100477.87;;;1.04;100.00
23241;BME280;11789;53.482;9.862;2024-02-26T01:50:49;100476.63;;;0.91;100.00
23241;BME280;11789;53.482;9.862;2024-02-26T01:53:15;100485.16;;;0.93;100.00
23241;BME280;11789;53.482;9.862;2024-02-26T01:55:41;100478.56;;;1.00;100.00
23241;BME280;11789;53.482;9.862;2024-02-26T01:58:07;100477.28;;;1.13;100.00
23241;BME280;11789;53.482;9.862;2024-02-26T02:00:32;100473.34;;;1.22;100.00
23241;BME280;11789;53.482;9.862;2024-02-26T02:02:58;100480.44;;;1.33;100.00
23241;BME280;11789;53.482;9.862;2024-02-26T02:05:24;100488.16;;;1.36;100.00
23241;BME280;11789;53.482;9.862;2024-02-26T02:07:51;100483.84;;;1.33;100.00
23241;BME280;11789;53.482;9.862;2024-02-26T02:10:18;100481.44;;;1.38;100.00
23241;BME280;11789;53.482;9.862;2024-02-26T02:12:48;100484.06;;;1.41;100.00
23241;BME280;11789;53.482;9.862;2024-02-26T02:15:14;100481.25;;;1.32;100.00
23241;BME280;11789;53.482;9.862;2024-02-26T02:17:39;100477.16;;;1.08;100.00
23241;BME280;11789;53.482;9.862;2024-02-26T02:20:09;100476.44;;;1.12;100.00
23241;BME280;11789;53.482;9.862;2024-02-26T02:22:34;100479.78;;;1.11;100.00
23241;BME280;11789;53.482;9.862;2024-02-26T02:25:00;100478.91;;;1.11;100.00
23241;BME280;11789;53.482;9.862;2024-02-26T02:27:26;100492.28;;;1.03;100.00
23241;BME280;11789;53.482;9.862;2024-02-26T02:29:52;100486.66;;;0.87;100.00
23241;BME280;11789;53.482;9.862;2024-02-26T02:32:18;100489.66;;;0.75;100.00
23241;BME280;11789;53.482;9.862;2024-02-26T02:34:45;100481.84;;;0.70;100.00
23241;BME280;11789;53.482;9.862;2024-02-26T02:37:10;100490.12;;;0.63;100.00
23241;BME280;11789;53.482;9.862;2024-02-26T02:39:36;100491.28;;;0.73;100.00
23241;BME280;11789;53.482;9.862;2024-02-26T02:42:01;100488.13;;;0.80;100.00
23241;BME280;11789;53.482;9.862;2024-02-26T02:44:27;100489.09;;;0.84;100.00
23241;BME280;11789;53.482;9.862;2024-02-26T02:46:52;100494.06;;;0.81;100.00
23241;BME280;11789;53.482;9.862;2024-02-26T02:49:18;100502.06;;;0.66;100.00
23241;BME280;11789;53.482;9.862;2024-02-26T02:51:44;100492.34;;;0.54;100.00
23241;BME280;11789;53.482;9.862;2024-02-26T02:54:09;100503.19;;;0.48;100.00
23241;BME280;11789;53.482;9.862;2024-02-26T02:56:35;100501.34;;;0.44;100.00
23241;BME280;11789;53.482;9.862;2024-02-26T02:59:01;100500.59;;;0.47;100.00
23241;BME280;11789;53.482;9.862;2024-02-26T03:01:27;100498.75;;;0.43;100.00
23241;BME280;11789;53.482;9.862;2024-02-26T03:03:52;100505.09;;;0.30;100.00
23241;BME280;11789;53.482;9.862;2024-02-26T03:06:18;100500.66;;;0.24;100.00
23241;BME280;11789;53.482;9.862;2024-02-26T03:08:43;100498.41;;;0.32;100.00
23241;BME280;11789;53.482;9.862;2024-02-26T03:11:13;100499.91;;;0.51;100.00
23241;BME280;11789;53.482;9.862;2024-02-26T03:13:39;100503.59;;;0.61;100.00
23241;BME280;11789;53.482;9.862;2024-02-26T03:16:05;100510.06;;;0.51;100.00
23241;BME280;11789;53.482;9.862;2024-02-26T03:18:31;100514.53;;;0.58;100.00
23241;BME280;11789;53.482;9.862;2024-02-26T03:20:56;100514.84;;;0.67;100.00
23241;BME280;11789;53.482;9.862;2024-02-26T03:23:21;100513.38;;;0.74;100.00
23241;BME280;11789;53.482;9.862;2024-02-26T03:25:47;100512.81;;;0.83;100.00
23241;BME280;11789;53.482;9.862;2024-02-26T03:28:13;100511.78;;;0.77;100.00
23241;BME280;11789;53.482;9.862;2024-02-26T03:30:38;100509.56;;;0.61;100.00
23241;BME280;11789;53.482;9.862;2024-02-26T03:33:04;100512.53;;;0.49;100.00
23241;BME280;11789;53.482;9.862;2024-02-26T03:35:29;100512.72;;;0.30;100.00
23241;BME280;11789;53.482;9.862;2024-02-26T03:37:55;100516.72;;;0.23;100.00
23241;BME280;11789;53.482;9.862;2024-02-26T03:40:20;100520.78;;;0.18;100.00
23241;BME280;11789;53.482;9.862;2024-02-26T03:42:46;100518.03;;;0.12;100.00
23241;BME280;11789;53.482;9.862;2024-02-26T03:45:11;100529.06;;;0.13;100.00
23241;BME280;11789;53.482;9.862;2024-02-26T03:47:40;100529.22;;;0.17;100.00
23241;BME280;11789;53.482;9.862;2024-02-26T03:50:06;100538.78;;;0.24;100.00
23241;BME280;11789;53.482;9.862;2024-02-26T03:52:32;100539.50;;;0.20;100.00
23241;BME280;11789;53.482;9.862;2024-02-26T03:54:58;100545.13;;;0.36;100.00
23241;BME280;11789;53.482;9.862;2024-02-26T03:57:24;100547.41;;;0.52;100.00
23241;BME280;11789;53.482;9.862;2024-02-26T03:59:49;100543.84;;;0.47;100.00
23241;BME280;11789;53.482;9.862;2024-02-26T04:02:16;100554.41;;;0.35;100.00
23241;BME280;11789;53.482;9.862;2024-02-26T04:04:41;100553.56;;;0.35;100.00
23241;BME280;11789;53.482;9.862;2024-02-26T04:07:07;100558.75;;;0.38;100.00
23241;BME280;11789;53.482;9.862;2024-02-26T04:09:33;100555.84;;;0.27;100.00
23241;BME280;11789;53.482;9.862;2024-02-26T04:11:58;100565.56;;;0.15;100.00
23241;BME280;11789;53.482;9.862;2024-02-26T04:14:23;100573.91;;;0.11;100.00
23241;BME280;11789;53.482;9.862;2024-02-26T04:16:49;100575.41;;;0.06;100.00
23241;BME280;11789;53.482;9.862;2024-02-26T04:19:17;100583.69;;;0.00;100.00
23241;BME280;11789;53.482;9.862;2024-02-26T04:21:43;100589.53;;;-0.01;100.00
23241;BME280;11789;53.482;9.862;2024-02-26T04:24:08;100591.84;;;-0.07;100.00
23241;BME280;11789;53.482;9.862;2024-02-26T04:26:34;100591.69;;;-0.12;100.00
23241;BME280;11789;53.482;9.862;2024-02-26T04:28:59;100601.75;;;-0.15;100.00
23241;BME280;11789;53.482;9.862;2024-02-26T04:31:25;100594.41;;;-0.07;100.00
23241;BME280;11789;53.482;9.862;2024-02-26T04:33:51;100597.72;;;0.14;100.00
23241;BME280;11789;53.482;9.862;2024-02-26T04:36:17;100595.88;;;0.33;100.00
23241;BME280;11789;53.482;9.862;2024-02-26T04:38:43;100602.97;;;0.41;100.00
23241;BME280;11789;53.482;9.862;2024-02-26T04:41:09;100609.09;;;0.46;100.00
23241;BME280;11789;53.482;9.862;2024-02-26T04:43:34;100606.75;;;0.52;100.00
23241;BME280;11789;53.482;9.862;2024-02-26T04:45:59;100614.59;;;0.59;100.00
23241;BME280;11789;53.482;9.862;2024-02-26T04:48:27;100623.22;;;0.62;100.00
23241;BME280;11789;53.482;9.862;2024-02-26T04:50:53;100622.19;;;0.57;100.00
23241;BME280;11789;53.482;9.862;2024-02-26T04:53:18;100618.66;;;0.54;100.00
23241;BME280;11789;53.482;9.862;2024-02-26T04:55:44;100626.25;;;0.52;100.00
23241;BME280;11789;53.482;9.862;2024-02-26T04:58:09;100627.47;;;0.39;100.00
23241;BME280;11789;53.482;9.862;2024-02-26T05:00:35;100636.22;;;0.23;100.00
23241;BME280;11789;53.482;9.862;2024-02-26T05:03:01;100636.50;;;0.09;100.00
23241;BME280;11789;53.482;9.862;2024-02-26T05:05:26;100643.78;;;-0.01;100.00
23241;BME280;11789;53.482;9.862;2024-02-26T05:07:52;100634.81;;;0.09;100.00
23241;BME280;11789;53.482;9.862;2024-02-26T05:10:17;100636.22;;;0.23;100.00
23241;BME280;11789;53.482;9.862;2024-02-26T05:12:43;100636.44;;;0.30;100.00
23241;BME280;11789;53.482;9.862;2024-02-26T05:15:09;100635.28;;;0.21;100.00
23241;BME280;11789;53.482;9.862;2024-02-26T05:17:35;100640.00;;;0.11;100.00
23241;BME280;11789;53.482;9.862;2024-02-26T05:20:00;100637.81;;;-0.01;100.00
23241;BME280;11789;53.482;9.862;2024-02-26T05:22:25;100635.91;;;-0.07;100.00
23241;BME280;11789;53.482;9.862;2024-02-26T05:24:51;100640.37;;;-0.01;100.00
23241;BME280;11789;53.482;9.862;2024-02-26T05:27:17;100634.19;;;0.15;100.00
23241;BME280;11789;53.482;9.862;2024-02-26T05:29:43;100643.97;;;0.27;100.00
23241;BME280;11789;53.482;9.862;2024-02-26T05:32:08;100641.19;;;0.20;100.00
23241;BME280;11789;53.482;9.862;2024-02-26T05:34:33;100638.06;;;0.28;100.00
23241;BME280;11789;53.482;9.862;2024-02-26T05:36:59;100646.38;;;0.23;100.00
23241;BME280;11789;53.482;9.862;2024-02-26T05:39:24;100649.56;;;0.18;100.00
23241;BME280;11789;53.482;9.862;2024-02-26T05:41:50;100658.06;;;0.18;100.00
23241;BME280;11789;53.482;9.862;2024-02-26T05:44:15;100654.94;;;0.25;100.00
23241;BME280;11789;53.482;9.862;2024-02-26T05:46:41;100663.00;;;0.38;100.00
23241;BME280;11789;53.482;9.862;2024-02-26T05:49:07;100661.47;;;0.41;100.00
23241;BME280;11789;53.482;9.862;2024-02-26T05:51:33;100667.50;;;0.45;100.00
23241;BME280;11789;53.482;9.862;2024-02-26T05:53:58;100670.34;;;0.30;100.00
23241;BME280;11789;53.482;9.862;2024-02-26T05:56:23;100676.06;;;0.24;100.00
23241;BME280;11789;53.482;9.862;2024-02-26T05:58:49;100666.94;;;0.30;100.00
23241;BME280;11789;53.482;9.862;2024-02-26T06:01:16;100673.12;;;0.36;100.00
23241;BME280;11789;53.482;9.862;2024-02-26T06:03:42;100676.41;;;0.34;100.00
23241;BME280;11789;53.482;9.862;2024-02-26T06:06:07;100681.56;;;0.35;100.00
23241;BME280;11789;53.482;9.862;2024-02-26T06:08:33;100684.41;;;0.43;100.00
23241;BME280;11789;53.482;9.862;2024-02-26T06:10:58;100685.09;;;0.39;100.00
23241;BME280;11789;53.482;9.862;2024-02-26T06:13:24;100690.84;;;0.35;100.00
23241;BME280;11789;53.482;9.862;2024-02-26T06:15:49;100688.78;;;0.24;100.00
23241;BME280;11789;53.482;9.862;2024-02-26T06:18:15;100690.91;;;0.14;100.00
23241;BME280;11789;53.482;9.862;2024-02-26T06:20:41;100692.94;;;0.22;100.00
23241;BME280;11789;53.482;9.862;2024-02-26T06:23:06;100698.44;;;0.33;100.00
23241;BME280;11789;53.482;9.862;2024-02-26T06:25:32;100697.06;;;0.41;100.00
23241;BME280;11789;53.482;9.862;2024-02-26T06:27:57;100693.41;;;0.35;100.00
23241;BME280;11789;53.482;9.862;2024-02-26T06:30:23;100696.41;;;0.24;100.00
23241;BME280;11789;53.482;9.862;2024-02-26T06:32:48;100695.94;;;0.35;100.00
23241;BME280;11789;53.482;9.862;2024-02-26T06:35:14;100702.78;;;0.36;100.00
23241;BME280;11789;53.482;9.862;2024-02-26T06:37:39;100703.41;;;0.30;100.00
23241;BME280;11789;53.482;9.862;2024-02-26T06:40:05;100701.91;;;0.35;100.00
23241;BME280;11789;53.482;9.862;2024-02-26T06:42:34;100708.09;;;0.42;100.00
23241;BME280;11789;53.482;9.862;2024-02-26T06:45:01;100705.91;;;0.51;100.00
23241;BME280;11789;53.482;9.862;2024-02-26T06:47:26;100711.22;;;0.57;100.00
23241;BME280;11789;53.482;9.862;2024-02-26T06:49:51;100710.91;;;0.49;100.00
23241;BME280;11789;53.482;9.862;2024-02-26T06:52:17;100720.19;;;0.47;100.00
23241;BME280;11789;53.482;9.862;2024-02-26T06:54:42;100724.63;;;0.53;100.00
23241;BME280;11789;53.482;9.862;2024-02-26T06:57:08;100724.16;;;0.41;100.00
23241;BME280;11789;53.482;9.862;2024-02-26T06:59:33;100728.50;;;0.43;100.00
23241;BME280;11789;53.482;9.862;2024-02-26T07:01:59;100719.13;;;0.42;100.00
23241;BME280;11789;53.482;9.862;2024-02-26T07:04:24;100725.91;;;0.42;100.00
23241;BME280;11789;53.482;9.862;2024-02-26T07:06:49;100727.84;;;0.49;100.00
23241;BME280;11789;53.482;9.862;2024-02-26T07:09:15;100727.12;;;0.51;100.00
23241;BME280;11789;53.482;9.862;2024-02-26T07:11:41;100728.63;;;0.46;100.00
23241;BME280;11789;53.482;9.862;2024-02-26T07:14:10;100739.88;;;0.53;100.00
23241;BME280;11789;53.482;9.862;2024-02-26T07:16:36;100741.13;;;0.64;100.00
23241;BME280;11789;53.482;9.862;2024-02-26T07:19:01;100739.69;;;0.71;100.00
23241;BME280;11789;53.482;9.862;2024-02-26T07:21:27;100739.84;;;0.75;100.00
23241;BME280;11789;53.482;9.862;2024-02-26T07:23:53;100742.13;;;0.68;100.00
23241;BME280;11789;53.482;9.862;2024-02-26T07:26:18;100745.75;;;0.74;100.00
23241;BME280;11789;53.482;9.862;2024-02-26T07:28:44;100748.78;;;0.87;100.00
23241;BME280;11789;53.482;9.862;2024-02-26T07:31:10;100752.91;;;0.85;100.00
23241;BME280;11789;53.482;9.862;2024-02-26T07:33:35;100756.16;;;0.81;100.00
23241;BME280;11789;53.482;9.862;2024-02-26T07:36:01;100758.13;;;0.88;100.00
23241;BME280;11789;53.482;9.862;2024-02-26T07:38:26;100760.69;;;0.88;100.00
23241;BME280;11789;53.482;9.862;2024-02-26T07:40:51;100764.66;;;0.81;100.00
23241;BME280;11789;53.482;9.862;2024-02-26T07:43:17;100768.38;;;0.89;100.00
23241;BME280;11789;53.482;9.862;2024-02-26T07:45:42;100769.69;;;1.02;100.00
23241;BME280;11789;53.482;9.862;2024-02-26T07:48:08;100772.13;;;0.99;100.00
23241;BME280;11789;53.482;9.862;2024-02-26T07:50:33;100778.03;;;0.98;100.00
23241;BME280;11789;53.482;9.862;2024-02-26T07:52:59;100784.03;;;1.00;100.00
23241;BME280;11789;53.482;9.862;2024-02-26T07:55:24;100783.97;;;0.98;100.00
23241;BME280;11789;53.482;9.862;2024-02-26T07:57:49;100789.50;;;1.11;100.00
23241;BME280;11789;53.482;9.862;2024-02-26T08:00:15;100780.63;;;1.23;100.00
23241;BME280;11789;53.482;9.862;2024-02-26T08:02:42;100781.81;;;1.33;100.00
23241;BME280;11789;53.482;9.862;2024-02-26T08:05:09;100785.44;;;1.40;100.00
23241;BME280;11789;53.482;9.862;2024-02-26T08:07:34;100789.94;;;1.47;100.00
23241;BME280;11789;53.482;9.862;2024-02-26T08:09:59;100796.03;;;1.52;100.00
23241;BME280;11789;53.482;9.862;2024-02-26T08:12:25;100797.91;;;1.56;100.00
23241;BME280;11789;53.482;9.862;2024-02-26T08:14:51;100802.13;;;1.55;100.00
23241;BME280;11789;53.482;9.862;2024-02-26T08:17:16;100797.72;;;1.51;100.00
23241;BME280;11789;53.482;9.862;2024-02-26T08:19:42;100799.53;;;1.54;100.00
23241;BME280;11789;53.482;9.862;2024-02-26T08:22:07;100806.25;;;1.52;100.00
23241;BME280;11789;53.482;9.862;2024-02-26T08:24:33;100809.03;;;1.58;100.00
23241;BME280;11789;53.482;9.862;2024-02-26T08:26:58;100810.13;;;1.66;100.00
23241;BME280;11789;53.482;9.862;2024-02-26T08:29:24;100810.97;;;1.65;100.00
23241;BME280;11789;53.482;9.862;2024-02-26T08:31:49;100812.87;;;1.72;100.00
23241;BME280;11789;53.482;9.862;2024-02-26T08:34:15;100811.47;;;1.80;100.00
23241;BME280;11789;53.482;9.862;2024-02-26T08:36:40;100813.16;;;1.80;100.00
23241;BME280;11789;53.482;9.862;2024-02-26T08:39:08;100811.69;;;1.87;100.00
23241;BME280;11789;53.482;9.862;2024-02-26T08:41:34;100818.81;;;1.97;100.00
23241;BME280;11789;53.482;9.862;2024-02-26T08:43:59;100816.53;;;2.04;100.00
23241;BME280;11789;53.482;9.862;2024-02-26T08:46:25;100804.81;;;2.10;100.00
23241;BME280;11789;53.482;9.862;2024-02-26T08:48:50;100809.38;;;2.20;100.00
23241;BME280;11789;53.482;9.862;2024-02-26T08:51:16;100822.34;;;2.27;100.00
23241;BME280;11789;53.482;9.862;2024-02-26T08:53:42;100824.19;;;2.31;100.00
23241;BME280;11789;53.482;9.862;2024-02-26T08:56:07;100828.78;;;2.42;100.00
23241;BME280;11789;53.482;9.862;2024-02-26T08:58:32;100830.72;;;2.49;100.00
23241;BME280;11789;53.482;9.862;2024-02-26T09:00:58;100826.56;;;2.52;100.00
23241;BME280;11789;53.482;9.862;2024-02-26T09:03:23;100835.22;;;2.57;100.00
23241;BME280;11789;53.482;9.862;2024-02-26T09:05:49;100839.75;;;2.66;100.00
23241;BME280;11789;53.482;9.862;2024-02-26T09:08:14;100839.84;;;2.69;100.00
23241;BME280;11789;53.482;9.862;2024-02-26T09:10:40;100840.75;;;2.71;100.00
23241;BME280;11789;53.482;9.862;2024-02-26T09:13:05;100835.78;;;2.76;100.00
23241;BME280;11789;53.482;9.862;2024-02-26T09:15:31;100828.34;;;2.83;100.00
23241;BME280;11789;53.482;9.862;2024-02-26T09:17:57;100837.13;;;2.92;100.00
23241;BME280;11789;53.482;9.862;2024-02-26T09:20:22;100839.81;;;2.96;100.00
23241;BME280;11789;53.482;9.862;2024-02-26T09:22:49;100844.22;;;3.02;100.00
23241;BME280;11789;53.482;9.862;2024-02-26T09:25:16;100843.50;;;3.06;100.00
23241;BME280;11789;53.482;9.862;2024-02-26T09:27:44;100840.22;;;3.10;100.00
23241;BME280;11789;53.482;9.862;2024-02-26T09:30:11;100840.34;;;3.15;100.00
23241;BME280;11789;53.482;9.862;2024-02-26T09:32:37;100839.66;;;3.20;100.00
23241;BME280;11789;53.482;9.862;2024-02-26T09:35:03;100842.38;;;3.26;100.00
23241;BME280;11789;53.482;9.862;2024-02-26T09:37:28;100845.94;;;3.31;100.00
23241;BME280;11789;53.482;9.862;2024-02-26T09:39:54;100850.31;;;3.35;100.00
23241;BME280;11789;53.482;9.862;2024-02-26T09:42:19;100841.88;;;3.39;100.00
23241;BME280;11789;53.482;9.862;2024-02-26T09:44:45;100847.09;;;3.43;100.00
23241;BME280;11789;53.482;9.862;2024-02-26T09:47:14;100855.75;;;3.48;100.00
23241;BME280;11789;53.482;9.862;2024-02-26T09:49:42;100850.69;;;3.49;100.00
23241;BME280;11789;53.482;9.862;2024-02-26T09:52:08;100860.03;;;3.49;100.00
23241;BME280;11789;53.482;9.862;2024-02-26T09:54:35;100864.41;;;3.53;100.00
23241;BME280;11789;53.482;9.862;2024-02-26T09:57:03;100861.97;;;3.56;100.00
23241;BME280;11789;53.482;9.862;2024-02-26T09:59:39;100868.00;;;3.59;100.00
23241;BME280;11789;53.482;9.862;2024-02-26T10:02:14;100868.09;;;3.62;100.00
23241;BME280;11789;53.482;9.862;2024-02-26T10:04:41;100868.22;;;3.67;100.00
23241;BME280;11789;53.482;9.862;2024-02-26T10:07:12;100864.84;;;3.68;100.00
23241;BME280;11789;53.482;9.862;2024-02-26T10:09:37;100869.22;;;3.72;100.00
23241;BME280;11789;53.482;9.862;2024-02-26T10:12:04;100866.75;;;3.75;100.00
23241;BME280;11789;53.482;9.862;2024-02-26T10:14:30;100867.78;;;3.82;100.00
23241;BME280;11789;53.482;9.862;2024-02-26T10:16:56;100869.59;;;3.86;100.00
23241;BME280;11789;53.482;9.862;2024-02-26T10:19:29;100870.59;;;3.91;100.00
23241;BME280;11789;53.482;9.862;2024-02-26T10:22:00;100873.25;;;3.96;100.00
23241;BME280;11789;53.482;9.862;2024-02-26T10:24:27;100878.56;;;4.03;100.00
23241;BME280;11789;53.482;9.862;2024-02-26T10:26:54;100883.06;;;4.12;100.00
23241;BME280;11789;53.482;9.862;2024-02-26T10:29:21;100891.72;;;4.17;100.00
23241;BME280;11789;53.482;9.862;2024-02-26T10:31:47;100886.75;;;4.23;100.00
23241;BME280;11789;53.482;9.862;2024-02-26T10:34:12;100880.91;;;4.29;100.00
23241;BME280;11789;53.482;9.862;2024-02-26T10:36:39;100887.00;;;4.32;100.00
23241;BME280;11789;53.482;9.862;2024-02-26T10:39:09;100892.25;;;4.38;100.00
23241;BME280;11789;53.482;9.862;2024-02-26T10:41:35;100885.38;;;4.36;100.00
23241;BME280;11789;53.482;9.862;2024-02-26T10:44:00;100888.00;;;4.39;100.00
23241;BME280;11789;53.482;9.862;2024-02-26T10:46:26;100899.28;;;4.47;100.00
23241;BME280;11789;53.482;9.862;2024-02-26T10:48:53;100906.16;;;4.50;100.00
23241;BME280;11789;53.482;9.862;2024-02-26T10:51:30;100903.75;;;4.56;100.00
23241;BME280;11789;53.482;9.862;2024-02-26T10:53:58;100901.31;;;4.60;100.00
23241;BME280;11789;53.482;9.862;2024-02-26T10:56:28;100903.12;;;4.64;100.00
23241;BME280;11789;53.482;9.862;2024-02-26T10:58:57;100905.75;;;4.67;100.00
23241;BME280;11789;53.482;9.862;2024-02-26T11:01:24;100908.44;;;4.72;100.00
23241;BME280;11789;53.482;9.862;2024-02-26T11:03:51;100904.22;;;4.76;100.00
23241;BME280;11789;53.482;9.862;2024-02-26T11:06:18;100906.06;;;4.81;100.00
23241;BME280;11789;53.482;9.862;2024-02-26T11:08:48;100902.81;;;4.87;100.00
23241;BME280;11789;53.482;9.862;2024-02-26T11:11:14;100911.50;;;4.93;100.00
23241;BME280;11789;53.482;9.862;2024-02-26T11:13:42;100907.25;;;4.95;100.00
23241;BME280;11789;53.482;9.862;2024-02-26T11:16:11;100907.38;;;5.00;100.00
23241;BME280;11789;53.482;9.862;2024-02-26T11:18:39;100902.22;;;4.99;100.00
23241;BME280;11789;53.482;9.862;2024-02-26T11:21:07;100903.84;;;4.97;100.00
23241;BME280;11789;53.482;9.862;2024-02-26T11:23:34;100905.63;;;4.98;100.00
23241;BME280;11789;53.482;9.862;2024-02-26T11:26:03;100909.91;;;4.99;100.00
23241;BME280;11789;53.482;9.862;2024-02-26T11:28:32;100907.25;;;4.95;100.00
23241;BME280;11789;53.482;9.862;2024-02-26T11:30:59;100912.47;;;4.99;100.00
23241;BME280;11789;53.482;9.862;2024-02-26T11:33:26;100910.78;;;5.01;100.00
23241;BME280;11789;53.482;9.862;2024-02-26T11:35:53;100910.84;;;5.02;100.00
23241;BME280;11789;53.482;9.862;2024-02-26T11:38:24;100909.06;;;5.00;100.00
23241;BME280;11789;53.482;9.862;2024-02-26T11:40:50;100909.94;;;5.02;100.00
23241;BME280;11789;53.482;9.862;2024-02-26T11:43:16;100909.91;;;5.00;100.00
23241;BME280;11789;53.482;9.862;2024-02-26T11:48:15;100920.25;;;5.03;100.00
23241;BME280;11789;53.482;9.862;2024-02-26T11:50:46;100915.22;;;5.08;100.00
23241;BME280;11789;53.482;9.862;2024-02-26T11:53:23;100921.31;;;5.13;100.00
23241;BME280;11789;53.482;9.862;2024-02-26T11:59:37;100936.06;;;5.23;100.00
23241;BME280;11789;53.482;9.862;2024-02-26T12:02:03;100936.19;;;5.28;100.00
23241;BME280;11789;53.482;9.862;2024-02-26T12:04:30;100925.13;;;5.30;100.00
23241;BME280;11789;53.482;9.862;2024-02-26T12:06:56;100924.38;;;5.36;100.00
23241;BME280;11789;53.482;9.862;2024-02-26T12:09:37;100930.44;;;5.39;100.00
23241;BME280;11789;53.482;9.862;2024-02-26T12:12:07;100928.84;;;5.44;100.00
23241;BME280;11789;53.482;9.862;2024-02-26T12:14:37;100929.78;;;5.48;100.00
23241;BME280;11789;53.482;9.862;2024-02-26T12:17:03;100931.47;;;5.47;100.00
23241;BME280;11789;53.482;9.862;2024-02-26T12:19:33;100931.53;;;5.51;100.00
23241;BME280;11789;53.482;9.862;2024-02-26T12:21:59;100937.63;;;5.56;100.00
23241;BME280;11789;53.482;9.862;2024-02-26T12:24:25;100941.97;;;5.60;100.00
23241;BME280;11789;53.482;9.862;2024-02-26T12:26:50;100945.50;;;5.65;100.00
23241;BME280;11789;53.482;9.862;2024-02-26T12:29:16;100949.03;;;5.70;100.00
23241;BME280;11789;53.482;9.862;2024-02-26T12:31:42;100957.56;;;5.69;100.00
23241;BME280;11789;53.482;9.862;2024-02-26T12:34:07;100958.41;;;5.68;100.00
23241;BME280;11789;53.482;9.862;2024-02-26T12:36:35;100960.16;;;5.72;100.00
23241;BME280;11789;53.482;9.862;2024-02-26T12:39:04;100957.69;;;5.77;100.00
23241;BME280;11789;53.482;9.862;2024-02-26T12:41:38;100958.56;;;5.77;100.00
23241;BME280;11789;53.482;9.862;2024-02-26T12:44:03;100962.03;;;5.79;100.00
23241;BME280;11789;53.482;9.862;2024-02-26T12:46:32;100957.88;;;5.84;100.00
23241;BME280;11789;53.482;9.862;2024-02-26T12:48:58;100972.50;;;5.88;100.00
23241;BME280;11789;53.482;9.862;2024-02-26T12:51:25;100969.09;;;5.89;100.00